createdAt,value
2022-12-24T00:00:59.922Z,10.2
2022-12-24T00:02:16.230Z,10.2
2022-12-24T00:03:32.486Z,10.2
2022-12-24T00:04:48.816Z,10.2
2022-12-24T00:06:05.074Z,10.1
2022-12-24T00:07:21.402Z,10.1
2022-12-24T00:08:37.671Z,10.2
2022-12-24T00:09:53.993Z,10.1
2022-12-24T00:11:10.253Z,10.1
2022-12-24T00:12:26.581Z,10.1
2022-12-24T00:13:42.835Z,10.1
2022-12-24T00:14:59.159Z,10.1
2022-12-24T00:16:14.440Z,10.1
2022-12-24T00:17:30.744Z,10.2
2022-12-24T00:18:47.044Z,10.2
2022-12-24T00:20:03.349Z,10.2
2022-12-24T00:21:19.643Z,10.2
2022-12-24T00:22:35.950Z,10.2
2022-12-24T00:23:51.245Z,10.2
2022-12-24T00:25:07.538Z,10.2
2022-12-24T00:26:23.816Z,10.3
2022-12-24T00:27:40.107Z,10.3
2022-12-24T00:28:56.416Z,10.3
2022-12-24T00:30:12.708Z,10.3
2022-12-24T00:31:29.028Z,10.3
2022-12-24T00:32:45.285Z,10.2
2022-12-24T00:34:01.585Z,10.2
2022-12-24T00:35:17.915Z,10.2
2022-12-24T00:36:34.172Z,10.2
2022-12-24T00:37:50.474Z,10.2
2022-12-24T00:39:06.774Z,10.1
2022-12-24T00:40:22.087Z,10.1
2022-12-24T00:41:38.360Z,10.1
2022-12-24T00:42:54.679Z,10.1
2022-12-24T00:44:10.977Z,10.1
2022-12-24T00:45:27.247Z,10.1
2022-12-24T00:46:43.543Z,10.1
2022-12-24T00:47:59.828Z,10
2022-12-24T00:49:16.148Z,10
2022-12-24T00:50:32.447Z,10
2022-12-24T00:51:48.719Z,10
2022-12-24T00:53:05.016Z,9.9
2022-12-24T00:54:21.333Z,9.9
2022-12-24T00:55:37.616Z,9.9
2022-12-24T00:56:52.902Z,9.9
2022-12-24T00:58:09.202Z,9.9
2022-12-24T00:59:25.497Z,9.9
2022-12-24T01:00:41.794Z,9.9
2022-12-24T01:01:58.079Z,9.9
2022-12-24T01:03:14.376Z,9.9
2022-12-24T01:04:30.668Z,9.9
2022-12-24T01:05:46.971Z,9.8
2022-12-24T01:07:03.267Z,9.9
2022-12-24T01:08:19.564Z,9.9
2022-12-24T01:09:35.874Z,9.9
2022-12-24T01:10:52.150Z,9.9
2022-12-24T01:12:08.438Z,9.9
2022-12-24T01:13:23.778Z,9.9
2022-12-24T01:14:40.040Z,9.9
2022-12-24T01:15:56.330Z,10
2022-12-24T01:17:12.644Z,10
2022-12-24T01:19:45.249Z,10
2022-12-24T01:21:01.510Z,10
2022-12-24T01:22:17.814Z,10
2022-12-24T01:23:34.095Z,10
2022-12-24T01:24:50.405Z,10.1
2022-12-24T01:26:06.693Z,10
2022-12-24T01:27:22.983Z,10.1
2022-12-24T01:28:39.302Z,10.1
2022-12-24T01:29:54.621Z,10.1
2022-12-24T01:31:10.881Z,10.1
2022-12-24T01:32:27.204Z,10.1
2022-12-24T01:33:43.475Z,10.2
2022-12-24T01:34:59.762Z,10.2
2022-12-24T01:36:16.077Z,10.2
2022-12-24T01:37:32.355Z,10.2
2022-12-24T01:38:48.643Z,10.1
2022-12-24T01:40:04.936Z,10.2
2022-12-24T01:41:21.239Z,10.2
2022-12-24T01:42:37.531Z,10.1
2022-12-24T01:43:53.820Z,10.2
2022-12-24T01:45:10.125Z,10.2
2022-12-24T01:46:25.436Z,10.1
2022-12-24T01:47:41.720Z,10.1
2022-12-24T01:48:58.010Z,10.1
2022-12-24T01:50:14.314Z,10.2
2022-12-24T01:51:30.603Z,10.1
2022-12-24T01:52:46.892Z,10.1
2022-12-24T01:54:03.213Z,10.1
2022-12-24T01:55:19.489Z,10.1
2022-12-24T01:56:35.781Z,10.1
2022-12-24T01:57:52.078Z,10.1
2022-12-24T01:59:08.398Z,10.1
2022-12-24T02:00:24.687Z,10.1
2022-12-24T02:01:40.965Z,10.1
2022-12-24T02:02:56.279Z,10.1
2022-12-24T02:04:12.567Z,10.1
2022-12-24T02:05:28.851Z,10.1
2022-12-24T02:06:45.180Z,10.1
2022-12-24T02:08:01.449Z,10.1
2022-12-24T02:09:17.736Z,10.1
2022-12-24T02:10:34.027Z,10.1
2022-12-24T02:11:50.343Z,10.1
2022-12-24T02:13:06.611Z,10.1
2022-12-24T02:14:22.913Z,10.1
2022-12-24T02:15:39.211Z,10.1
2022-12-24T02:16:55.502Z,10.1
2022-12-24T02:18:11.787Z,10.1
2022-12-24T02:19:27.114Z,10.1
2022-12-24T02:20:43.392Z,10.1
2022-12-24T02:21:59.716Z,10.1
2022-12-24T02:23:16.009Z,10.1
2022-12-24T02:24:32.275Z,10.1
2022-12-24T02:25:48.572Z,10.1
2022-12-24T02:27:04.897Z,10.1
2022-12-24T02:28:21.157Z,10.1
2022-12-24T02:29:37.485Z,10
2022-12-24T02:30:53.750Z,10.1
2022-12-24T02:32:10.049Z,10
2022-12-24T02:33:26.353Z,10
2022-12-24T02:34:42.664Z,10
2022-12-24T02:35:57.944Z,10.1
2022-12-24T02:37:14.259Z,10.1
2022-12-24T02:38:30.535Z,10.1
2022-12-24T02:39:46.826Z,10.1
2022-12-24T02:41:03.148Z,10.2
2022-12-24T02:42:19.445Z,10.1
2022-12-24T02:43:35.718Z,10.2
2022-12-24T02:44:51.999Z,10.2
2022-12-24T02:46:08.299Z,10.2
2022-12-24T02:47:24.610Z,10.2
2022-12-24T02:48:40.877Z,10.2
2022-12-24T02:49:57.173Z,10.2
2022-12-24T02:51:13.486Z,10.2
2022-12-24T02:52:28.785Z,10.2
2022-12-24T02:53:45.094Z,10.2
2022-12-24T02:55:01.371Z,10.2
2022-12-24T02:56:17.667Z,10.3
2022-12-24T02:57:33.949Z,10.3
2022-12-24T02:58:50.255Z,10.3
2022-12-24T03:00:06.550Z,10.3
2022-12-24T03:01:22.847Z,10.3
2022-12-24T03:02:39.140Z,10.3
2022-12-24T03:03:55.423Z,10.3
2022-12-24T03:05:11.713Z,10.3
2022-12-24T03:06:28.017Z,10.3
2022-12-24T03:07:44.306Z,10.3
2022-12-24T03:08:59.630Z,10.3
2022-12-24T03:10:15.905Z,10.3
2022-12-24T03:11:32.206Z,10.3
2022-12-24T03:12:48.506Z,10.3
2022-12-24T03:14:04.800Z,10.4
2022-12-24T03:15:21.092Z,10.3
2022-12-24T03:16:37.386Z,10.3
2022-12-24T03:17:53.683Z,10.3
2022-12-24T03:19:09.983Z,10.3
2022-12-24T03:20:26.267Z,10.3
2022-12-24T03:21:42.565Z,10.3
2022-12-24T03:22:58.852Z,10.3
2022-12-24T03:24:15.153Z,10.3
2022-12-24T03:25:30.479Z,10.3
2022-12-24T03:26:46.764Z,10.3
2022-12-24T03:28:03.050Z,10.3
2022-12-24T03:29:19.333Z,10.3
2022-12-24T03:30:35.641Z,10.3
2022-12-24T03:31:51.934Z,10.3
2022-12-24T03:33:08.227Z,10.3
2022-12-24T03:34:24.510Z,10.3
2022-12-24T03:35:40.807Z,10.3
2022-12-24T03:36:57.112Z,10.3
2022-12-24T03:38:13.395Z,10.3
2022-12-24T03:39:29.685Z,10.3
2022-12-24T03:40:45.983Z,10.3
2022-12-24T03:42:01.299Z,10.3
2022-12-24T03:43:17.586Z,10.3
2022-12-24T03:44:33.886Z,10.3
2022-12-24T03:45:50.183Z,10.3
2022-12-24T03:47:06.479Z,10.3
2022-12-24T03:48:22.768Z,10.3
2022-12-24T03:49:39.056Z,10.3
2022-12-24T03:50:55.362Z,10.3
2022-12-24T03:52:11.652Z,10.3
2022-12-24T03:53:27.942Z,10.3
2022-12-24T03:54:44.244Z,10.2
2022-12-24T03:56:00.538Z,10.3
2022-12-24T03:57:16.834Z,10.3
2022-12-24T03:58:32.141Z,10.3
2022-12-24T03:59:48.431Z,10.3
2022-12-24T04:01:04.726Z,10.3
2022-12-24T04:02:21.019Z,10.4
2022-12-24T04:03:37.323Z,10.3
2022-12-24T04:04:53.617Z,10.3
2022-12-24T04:06:09.898Z,10.3
2022-12-24T04:07:26.200Z,10.3
2022-12-24T04:08:42.496Z,10.3
2022-12-24T04:09:58.792Z,10.3
2022-12-24T04:11:15.084Z,10.3
2022-12-24T04:12:31.385Z,10.3
2022-12-24T04:13:47.664Z,10.4
2022-12-24T04:16:20.248Z,10.3
2022-12-24T04:17:35.000Z,10.3
2022-12-24T04:18:51.852Z,10.3
2022-12-24T04:20:08.155Z,10.3
2022-12-24T04:21:24.456Z,10.3
2022-12-24T04:22:40.740Z,10.4
2022-12-24T04:23:57.035Z,10.3
2022-12-24T04:25:13.322Z,10.3
2022-12-24T04:26:29.621Z,10.3
2022-12-24T04:27:45.906Z,10.4
2022-12-24T04:29:02.218Z,10.3
2022-12-24T04:30:18.513Z,10.4
2022-12-24T04:31:34.800Z,10.3
2022-12-24T04:32:51.083Z,10.3
2022-12-24T04:34:06.411Z,10.3
2022-12-24T04:35:22.695Z,10.3
2022-12-24T04:36:38.986Z,10.3
2022-12-24T04:37:55.287Z,10.3
2022-12-24T04:39:10.595Z,10.4
2022-12-24T04:40:26.908Z,10.3
2022-12-24T04:41:43.188Z,10.3
2022-12-24T04:42:59.474Z,10.3
2022-12-24T04:44:15.771Z,10.3
2022-12-24T04:45:32.068Z,10.3
2022-12-24T04:46:48.361Z,10.3
2022-12-24T04:48:04.648Z,10.4
2022-12-24T04:49:20.953Z,10.4
2022-12-24T04:50:37.256Z,10.4
2022-12-24T04:51:53.528Z,10.4
2022-12-24T04:53:09.826Z,10.4
2022-12-24T04:54:26.125Z,10.4
2022-12-24T04:55:41.434Z,10.3
2022-12-24T04:56:57.722Z,10.3
2022-12-24T04:58:14.000Z,10.3
2022-12-24T04:59:30.310Z,10.4
2022-12-24T05:00:46.603Z,10.4
2022-12-24T05:02:02.909Z,10.4
2022-12-24T05:03:19.209Z,10.4
2022-12-24T05:04:35.492Z,10.4
2022-12-24T05:05:51.778Z,10.4
2022-12-24T05:07:08.077Z,10.4
2022-12-24T05:08:24.368Z,10.4
2022-12-24T05:09:40.664Z,10.4
2022-12-24T05:10:56.964Z,10.4
2022-12-24T05:12:12.264Z,10.4
2022-12-24T05:13:28.565Z,10.4
2022-12-24T05:14:44.854Z,10.3
2022-12-24T05:16:01.151Z,10.3
2022-12-24T05:17:17.460Z,10.3
2022-12-24T05:18:33.751Z,10.3
2022-12-24T05:19:50.044Z,10.3
2022-12-24T05:21:06.325Z,10.3
2022-12-24T05:22:22.631Z,10.3
2022-12-24T05:23:38.913Z,10.3
2022-12-24T05:24:55.212Z,10.3
2022-12-24T05:26:11.510Z,10.3
2022-12-24T05:27:27.812Z,10.3
2022-12-24T05:28:43.103Z,10.3
2022-12-24T05:29:59.412Z,10.3
2022-12-24T05:31:15.692Z,10.3
2022-12-24T05:32:31.996Z,10.3
2022-12-24T05:33:48.283Z,10.3
2022-12-24T05:35:04.585Z,10.3
2022-12-24T05:36:20.876Z,10.3
2022-12-24T05:37:37.181Z,10.3
2022-12-24T05:38:53.470Z,10.3
2022-12-24T05:40:09.763Z,10.3
2022-12-24T05:41:26.062Z,10.3
2022-12-24T05:42:42.352Z,10.3
2022-12-24T05:43:58.661Z,10.2
2022-12-24T05:45:13.961Z,10.2
2022-12-24T05:46:30.244Z,10.2
2022-12-24T05:47:46.538Z,10.2
2022-12-24T05:49:02.825Z,10.2
2022-12-24T05:50:19.118Z,10.1
2022-12-24T05:51:35.426Z,10.1
2022-12-24T05:52:51.720Z,10.1
2022-12-24T05:54:08.019Z,10.1
2022-12-24T05:55:24.000Z,10.2
2022-12-24T05:56:40.593Z,10.1
2022-12-24T05:57:56.897Z,10.1
2022-12-24T05:59:13.192Z,10.1
2022-12-24T06:00:29.471Z,10.1
2022-12-24T06:01:44.785Z,10
2022-12-24T06:03:01.076Z,10.1
2022-12-24T06:04:17.376Z,10
2022-12-24T06:05:33.672Z,10.1
2022-12-24T06:06:49.954Z,10
2022-12-24T06:08:06.263Z,9.9
2022-12-24T06:10:38.849Z,10
2022-12-24T06:11:55.131Z,9.9
2022-12-24T06:13:11.430Z,9.9
2022-12-24T06:14:27.735Z,9.8
2022-12-24T06:15:44.019Z,9.9
2022-12-24T06:17:00.309Z,9.9
2022-12-24T06:18:15.627Z,9.9
2022-12-24T06:19:31.918Z,9.9
2022-12-24T06:20:48.227Z,9.9
2022-12-24T06:22:04.504Z,9.9
2022-12-24T06:23:20.806Z,9.9
2022-12-24T06:24:37.102Z,9.9
2022-12-24T06:25:53.399Z,9.9
2022-12-24T06:27:09.675Z,9.8
2022-12-24T06:28:25.975Z,9.8
2022-12-24T06:29:42.289Z,9.8
2022-12-24T06:30:58.581Z,9.7
2022-12-24T06:32:14.870Z,9.8
2022-12-24T06:33:31.162Z,9.7
2022-12-24T06:34:46.466Z,9.7
2022-12-24T06:36:02.751Z,9.7
2022-12-24T06:37:19.055Z,9.7
2022-12-24T06:38:35.345Z,9.7
2022-12-24T06:39:51.584Z,9.6
2022-12-24T06:41:07.886Z,9.6
2022-12-24T06:42:24.140Z,9.6
2022-12-24T06:43:40.377Z,9.6
2022-12-24T06:44:56.658Z,9.6
2022-12-24T06:46:12.978Z,9.6
2022-12-24T06:47:29.208Z,9.6
2022-12-24T06:48:45.523Z,9.6
2022-12-24T06:50:01.775Z,9.6
2022-12-24T06:51:17.004Z,9.6
2022-12-24T06:52:33.263Z,9.6
2022-12-24T06:53:49.491Z,9.6
2022-12-24T06:55:05.740Z,9.6
2022-12-24T06:56:21.965Z,9.6
2022-12-24T06:57:38.224Z,9.6
2022-12-24T06:58:54.459Z,9.6
2022-12-24T07:00:10.697Z,9.6
2022-12-24T07:01:26.937Z,9.6
2022-12-24T07:02:43.178Z,9.5
2022-12-24T07:03:59.415Z,9.5
2022-12-24T07:05:15.646Z,9.5
2022-12-24T07:06:31.914Z,9.5
2022-12-24T07:07:47.152Z,9.4
2022-12-24T07:09:03.392Z,9.4
2022-12-24T07:10:19.631Z,9.4
2022-12-24T07:11:35.872Z,9.4
2022-12-24T07:12:52.111Z,9.4
2022-12-24T07:14:08.353Z,9.4
2022-12-24T07:15:24.580Z,9.4
2022-12-24T07:16:40.850Z,9.5
2022-12-24T07:17:57.078Z,9.4
2022-12-24T07:19:13.308Z,9.4
2022-12-24T07:20:29.561Z,9.4
2022-12-24T07:21:45.789Z,9.4
2022-12-24T07:23:02.026Z,9.5
2022-12-24T07:24:17.280Z,9.5
2022-12-24T07:25:33.532Z,9.5
2022-12-24T07:26:49.767Z,9.5
2022-12-24T07:28:06.009Z,9.5
2022-12-24T07:29:22.252Z,9.5
2022-12-24T07:30:38.483Z,9.4
2022-12-24T07:31:54.731Z,9.5
2022-12-24T07:33:10.961Z,9.4
2022-12-24T07:34:27.215Z,9.4
2022-12-24T07:35:43.454Z,9.4
2022-12-24T07:36:59.696Z,9.3
2022-12-24T07:38:15.924Z,9.4
2022-12-24T07:39:32.176Z,9.3
2022-12-24T07:40:47.446Z,9.3
2022-12-24T07:42:03.668Z,9.3
2022-12-24T07:43:19.910Z,9.3
2022-12-24T07:44:36.157Z,9.4
2022-12-24T07:45:52.398Z,9.4
2022-12-24T07:47:08.617Z,9.3
2022-12-24T07:48:24.855Z,9.3
2022-12-24T07:49:41.114Z,9.3
2022-12-24T07:50:57.350Z,9.3
2022-12-24T07:52:13.587Z,9.3
2022-12-24T07:53:29.841Z,9.3
2022-12-24T07:54:46.059Z,9.3
2022-12-24T07:56:02.323Z,9.2
2022-12-24T07:57:17.572Z,9.3
2022-12-24T07:58:33.805Z,9.3
2022-12-24T07:59:50.035Z,9.3
2022-12-24T08:01:06.281Z,9.4
2022-12-24T08:02:22.533Z,9.4
2022-12-24T08:03:38.769Z,9.4
2022-12-24T08:04:54.996Z,9.4
2022-12-24T08:06:11.239Z,9.5
2022-12-24T08:07:27.487Z,9.5
2022-12-24T08:08:43.718Z,9.5
2022-12-24T08:09:59.980Z,9.5
2022-12-24T08:11:16.199Z,9.5
2022-12-24T08:12:32.447Z,9.5
2022-12-24T08:13:47.699Z,9.5
2022-12-24T08:15:03.930Z,9.5
2022-12-24T08:16:20.192Z,9.5
2022-12-24T08:17:36.434Z,9.5
2022-12-24T08:18:52.660Z,9.6
2022-12-24T08:20:08.916Z,9.6
2022-12-24T08:21:25.145Z,9.6
2022-12-24T08:22:41.377Z,9.6
2022-12-24T08:23:57.630Z,9.7
2022-12-24T08:25:13.867Z,9.6
2022-12-24T08:26:30.107Z,9.7
2022-12-24T08:27:46.336Z,9.7
2022-12-24T08:29:02.573Z,9.7
2022-12-24T08:30:17.832Z,9.7
2022-12-24T08:31:34.097Z,9.7
2022-12-24T08:32:50.330Z,9.7
2022-12-24T08:34:06.555Z,9.7
2022-12-24T08:35:22.802Z,9.7
2022-12-24T08:36:39.060Z,9.7
2022-12-24T08:37:55.286Z,9.7
2022-12-24T08:39:11.523Z,9.7
2022-12-24T08:40:27.761Z,9.7
2022-12-24T08:41:44.002Z,9.7
2022-12-24T08:43:00.247Z,9.7
2022-12-24T08:44:16.489Z,9.7
2022-12-24T08:45:32.726Z,9.8
2022-12-24T08:46:47.967Z,9.7
2022-12-24T08:48:04.218Z,9.8
2022-12-24T08:49:20.457Z,9.9
2022-12-24T08:50:36.686Z,9.9
2022-12-24T08:51:52.933Z,9.9
2022-12-24T08:53:09.173Z,9.9
2022-12-24T08:54:24.435Z,10
2022-12-24T08:59:29.408Z,10.2
2022-12-24T09:00:44.672Z,10.4
2022-12-24T09:01:59.920Z,10.8
2022-12-24T09:03:15.193Z,11.9
2022-12-24T09:04:30.438Z,12.9
2022-12-24T09:05:45.703Z,13.7
2022-12-24T09:07:00.952Z,14.3
2022-12-24T09:08:16.219Z,14.6
2022-12-24T09:09:31.473Z,14.8
2022-12-24T09:10:47.721Z,14.9
2022-12-24T09:12:03.961Z,15
2022-12-24T09:13:20.194Z,15.2
2022-12-24T09:17:08.922Z,15.6
2022-12-24T09:18:25.167Z,15.8
2022-12-24T09:19:41.391Z,15.7
2022-12-24T09:20:57.627Z,15.8
2022-12-24T09:22:13.874Z,15.9
2022-12-24T09:23:30.110Z,16.1
2022-12-24T09:24:45.378Z,16.4
2022-12-24T09:26:00.635Z,16.8
2022-12-24T09:27:16.863Z,16.5
2022-12-24T09:28:33.105Z,16.7
2022-12-24T09:29:49.347Z,16.8
2022-12-24T09:31:05.586Z,16.9
2022-12-24T09:32:21.833Z,16.6
2022-12-24T09:33:38.069Z,16.8
2022-12-24T09:34:54.306Z,17
2022-12-24T09:36:10.549Z,16.4
2022-12-24T09:37:26.782Z,14.9
2022-12-24T09:38:42.047Z,13.6
2022-12-24T09:39:57.309Z,12.9
2022-12-24T09:41:13.551Z,12.5
2022-12-24T09:42:29.798Z,12.3
2022-12-24T09:43:46.021Z,12
2022-12-24T09:45:02.278Z,11.7
2022-12-24T09:46:18.509Z,11.6
2022-12-24T09:47:34.756Z,11.4
2022-12-24T09:48:50.977Z,11.2
2022-12-24T09:50:07.235Z,11.1
2022-12-24T09:51:23.474Z,10.9
2022-12-24T09:52:38.734Z,10.9
2022-12-24T09:53:53.975Z,10.8
2022-12-24T09:55:10.224Z,10.8
2022-12-24T09:56:26.454Z,10.7
2022-12-24T09:57:42.705Z,10.7
2022-12-24T09:58:58.939Z,10.6
2022-12-24T10:00:15.180Z,10.6
2022-12-24T10:01:31.416Z,10.5
2022-12-24T10:02:47.664Z,10.5
2022-12-24T10:04:03.895Z,10.5
2022-12-24T10:05:20.154Z,10.5
2022-12-24T10:06:36.375Z,10.4
2022-12-24T10:07:52.618Z,10.4
2022-12-24T10:09:08.872Z,10.7
2022-12-24T10:10:24.138Z,11.2
2022-12-24T10:11:40.366Z,11
2022-12-24T10:12:56.618Z,10.8
2022-12-24T10:14:12.845Z,10.7
2022-12-24T10:15:29.084Z,10.7
2022-12-24T10:16:45.331Z,10.6
2022-12-24T10:18:01.563Z,10.6
2022-12-24T10:19:16.822Z,10.6
2022-12-24T10:20:32.096Z,10.7
2022-12-24T10:21:48.319Z,10.8
2022-12-24T10:23:04.569Z,10.8
2022-12-24T10:24:20.797Z,11.2
2022-12-24T10:25:37.048Z,11.3
2022-12-24T10:26:53.290Z,11.1
2022-12-24T10:28:09.536Z,11.1
2022-12-24T10:29:25.767Z,11.2
2022-12-24T10:30:42.005Z,11.4
2022-12-24T10:31:58.254Z,11.6
2022-12-24T10:33:14.490Z,11.8
2022-12-24T10:34:30.722Z,12.7
2022-12-24T10:35:46.966Z,13.6
2022-12-24T10:37:02.210Z,13
2022-12-24T10:38:18.462Z,12.5
2022-12-24T10:39:34.691Z,12.2
2022-12-24T10:40:50.945Z,12
2022-12-24T10:42:07.176Z,11.8
2022-12-24T10:43:23.421Z,11.5
2022-12-24T10:44:39.660Z,11.4
2022-12-24T10:45:54.924Z,11.3
2022-12-24T10:47:10.180Z,11.5
2022-12-24T10:48:25.445Z,12.3
2022-12-24T10:49:40.683Z,14
2022-12-24T10:50:56.000Z,15.5
2022-12-24T10:52:13.166Z,16.3
2022-12-24T10:53:29.413Z,16.5
2022-12-24T10:54:45.654Z,16.3
2022-12-24T10:56:01.897Z,15.1
2022-12-24T10:57:18.123Z,14.2
2022-12-24T10:58:34.376Z,13.6
2022-12-24T10:59:50.602Z,13.3
2022-12-24T11:01:06.845Z,12.9
2022-12-24T11:02:23.000Z,12.3
2022-12-24T11:03:39.336Z,12
2022-12-24T11:04:55.569Z,11.7
2022-12-24T11:06:10.825Z,11.5
2022-12-24T11:07:27.068Z,11.4
2022-12-24T11:08:43.314Z,11.4
2022-12-24T11:09:59.538Z,11.3
2022-12-24T11:11:15.778Z,11.1
2022-12-24T11:12:32.027Z,11.1
2022-12-24T11:13:48.259Z,11.1
2022-12-24T11:15:04.647Z,11.1
2022-12-24T11:16:20.998Z,11.1
2022-12-24T11:17:37.386Z,11
2022-12-24T11:18:52.643Z,10.9
2022-12-24T11:20:08.882Z,10.9
2022-12-24T11:21:25.132Z,10.9
2022-12-24T11:22:41.363Z,10.9
2022-12-24T11:23:57.617Z,10.9
2022-12-24T11:25:13.839Z,10.9
2022-12-24T11:26:30.085Z,10.9
2022-12-24T11:27:46.323Z,10.9
2022-12-24T11:29:02.577Z,10.9
2022-12-24T11:30:18.809Z,10.9
2022-12-24T11:31:35.043Z,10.9
2022-12-24T11:32:51.275Z,10.9
2022-12-24T11:34:07.515Z,10.9
2022-12-24T11:35:22.773Z,10.9
2022-12-24T11:36:39.029Z,10.9
2022-12-24T11:37:55.259Z,10.9
2022-12-24T11:39:11.498Z,10.9
2022-12-24T11:40:27.739Z,11
2022-12-24T11:41:43.973Z,11
2022-12-24T11:43:00.217Z,11
2022-12-24T11:44:15.488Z,11
2022-12-24T11:45:30.745Z,11
2022-12-24T11:46:46.972Z,11
2022-12-24T11:48:03.211Z,11.1
2022-12-24T11:49:19.458Z,11.2
2022-12-24T11:50:35.691Z,11.5
2022-12-24T11:51:51.941Z,11.7
2022-12-24T11:53:08.171Z,11.7
2022-12-24T11:54:24.414Z,11.7
2022-12-24T11:55:40.650Z,11.6
2022-12-24T11:56:56.902Z,11.7
2022-12-24T11:58:13.130Z,12
2022-12-24T11:59:29.376Z,11.9
2022-12-24T12:00:45.623Z,11.9
2022-12-24T12:02:00.876Z,11.9
2022-12-24T12:03:17.118Z,11.8
2022-12-24T12:04:33.350Z,11.8
2022-12-24T12:05:49.596Z,11.9
2022-12-24T12:07:05.823Z,11.9
2022-12-24T12:08:22.064Z,11.8
2022-12-24T12:09:38.307Z,11.8
2022-12-24T12:10:53.564Z,11.7
2022-12-24T12:12:08.825Z,11.7
2022-12-24T12:13:24.088Z,11.6
2022-12-24T12:14:40.441Z,11.6
2022-12-24T12:15:56.832Z,11.6
2022-12-24T12:17:12.083Z,11.6
2022-12-24T12:18:28.330Z,11.5
2022-12-24T12:19:44.566Z,11.5
2022-12-24T12:21:00.807Z,11.5
2022-12-24T12:22:17.051Z,11.4
2022-12-24T12:23:33.296Z,11.4
2022-12-24T12:24:49.530Z,11.4
2022-12-24T12:26:05.774Z,11.4
2022-12-24T12:27:21.999Z,11.4
2022-12-24T12:28:38.245Z,11.4
2022-12-24T12:29:54.497Z,11.4
2022-12-24T12:31:10.724Z,11.3
2022-12-24T12:32:26.962Z,11.3
2022-12-24T12:33:42.226Z,11.3
2022-12-24T12:34:58.458Z,11.3
2022-12-24T12:36:14.711Z,11.4
2022-12-24T12:37:30.949Z,11.3
2022-12-24T12:38:47.184Z,11.3
2022-12-24T12:40:03.432Z,11.3
2022-12-24T12:41:19.669Z,11.2
2022-12-24T12:42:34.917Z,11.3
2022-12-24T12:43:50.185Z,11.3
2022-12-24T12:45:05.454Z,11.3
2022-12-24T12:46:20.688Z,11.3
2022-12-24T12:47:36.949Z,11.3
2022-12-24T12:48:53.169Z,11.3
2022-12-24T12:50:09.423Z,11.3
2022-12-24T12:51:25.661Z,11.3
2022-12-24T12:52:41.906Z,11.3
2022-12-24T12:53:58.133Z,11.3
2022-12-24T12:55:14.369Z,11.3
2022-12-24T12:56:30.613Z,11.3
2022-12-24T12:57:46.852Z,11.3
2022-12-24T12:59:03.092Z,11.2
2022-12-24T13:00:19.343Z,11.2
2022-12-24T13:01:35.572Z,11.2
2022-12-24T13:02:50.830Z,11.2
2022-12-24T13:04:07.068Z,11.2
2022-12-24T13:05:23.305Z,11.2
2022-12-24T13:06:39.544Z,11.2
2022-12-24T13:07:55.791Z,11.2
2022-12-24T13:09:11.058Z,11.2
2022-12-24T13:10:27.302Z,11.2
2022-12-24T13:11:42.561Z,11.2
2022-12-24T13:12:57.814Z,11.2
2022-12-24T13:14:13.077Z,11.2
2022-12-24T13:15:28.327Z,11.3
2022-12-24T13:16:44.560Z,11.3
2022-12-24T13:18:00.802Z,11.3
2022-12-24T13:19:17.053Z,11.3
2022-12-24T13:20:33.300Z,11.3
2022-12-24T13:21:49.521Z,11.3
2022-12-24T13:23:05.775Z,11.2
2022-12-24T13:24:22.008Z,11.3
2022-12-24T13:25:38.244Z,11.2
2022-12-24T13:26:54.487Z,11.2
2022-12-24T13:28:10.726Z,11.2
2022-12-24T13:29:26.962Z,11.2
2022-12-24T13:30:43.217Z,11.2
2022-12-24T13:31:58.458Z,11.2
2022-12-24T13:33:14.696Z,11.2
2022-12-24T13:34:30.941Z,11.2
2022-12-24T13:35:47.175Z,11.1
2022-12-24T13:37:03.423Z,11.1
2022-12-24T13:38:19.670Z,11.1
2022-12-24T13:39:35.913Z,11
2022-12-24T13:40:51.172Z,11
2022-12-24T13:42:06.415Z,10.8
2022-12-24T13:43:22.659Z,10.8
2022-12-24T13:44:38.904Z,10.7
2022-12-24T13:45:55.142Z,10.7
2022-12-24T13:47:11.385Z,10.6
2022-12-24T13:48:27.618Z,10.6
2022-12-24T13:49:43.861Z,10.6
2022-12-24T13:51:00.105Z,10.5
2022-12-24T13:52:16.340Z,10.5
2022-12-24T13:53:32.582Z,10.4
2022-12-24T13:54:48.823Z,10.4
2022-12-24T13:56:05.058Z,10.3
2022-12-24T13:57:21.313Z,10.3
2022-12-24T13:58:36.560Z,10.3
2022-12-24T13:59:52.792Z,10.3
2022-12-24T14:01:09.038Z,10.3
2022-12-24T14:02:25.269Z,10.3
2022-12-24T14:03:41.527Z,10.3
2022-12-24T14:04:57.752Z,10.2
2022-12-24T14:06:13.996Z,10.2
2022-12-24T14:07:29.262Z,10.2
2022-12-24T14:08:44.507Z,10.2
2022-12-24T14:10:00.749Z,10.2
2022-12-24T14:11:17.002Z,10.2
2022-12-24T14:12:33.227Z,10.2
2022-12-24T14:13:49.473Z,10.2
2022-12-24T14:15:05.711Z,10.2
2022-12-24T14:16:21.946Z,10.2
2022-12-24T14:17:38.195Z,10.1
2022-12-24T14:18:54.436Z,10.1
2022-12-24T14:20:10.671Z,10.2
2022-12-24T14:21:26.918Z,10.2
2022-12-24T14:22:43.152Z,10.2
2022-12-24T14:23:59.393Z,10.2
2022-12-24T14:25:14.658Z,10.2
2022-12-24T14:26:30.890Z,10.2
2022-12-24T14:27:47.124Z,10.2
2022-12-24T14:29:03.370Z,10.2
2022-12-24T14:30:19.608Z,10.2
2022-12-24T14:31:35.859Z,10.2
2022-12-24T14:32:52.088Z,10.2
2022-12-24T14:35:23.589Z,10.3
2022-12-24T14:36:38.861Z,10.3
2022-12-24T14:37:54.104Z,10.3
2022-12-24T14:39:10.353Z,10.3
2022-12-24T14:40:26.586Z,10.3
2022-12-24T14:41:42.830Z,10.3
2022-12-24T14:42:59.067Z,10.2
2022-12-24T14:44:15.320Z,10.2
2022-12-24T14:45:31.547Z,10.2
2022-12-24T14:46:47.785Z,10.2
2022-12-24T14:48:04.033Z,10.3
2022-12-24T14:49:20.265Z,10.2
2022-12-24T14:50:36.510Z,10.2
2022-12-24T14:51:52.745Z,10.2
2022-12-24T14:53:08.987Z,10.2
2022-12-24T14:54:24.257Z,10.1
2022-12-24T14:55:40.484Z,10.2
2022-12-24T14:56:56.726Z,10.1
2022-12-24T14:58:12.976Z,10.1
2022-12-24T14:59:29.214Z,10.1
2022-12-24T15:00:45.445Z,10.1
2022-12-24T15:02:01.695Z,10.1
2022-12-24T15:03:16.942Z,10.1
2022-12-24T15:04:32.205Z,10.1
2022-12-24T15:05:47.474Z,10
2022-12-24T15:07:02.723Z,10
2022-12-24T15:08:18.958Z,10
2022-12-24T15:09:35.195Z,10
2022-12-24T15:10:51.451Z,10
2022-12-24T15:12:07.696Z,10
2022-12-24T15:13:23.923Z,10
2022-12-24T15:14:40.156Z,10
2022-12-24T15:15:56.393Z,9.9
2022-12-24T15:17:12.649Z,9.9
2022-12-24T15:18:28.877Z,9.9
2022-12-24T15:19:45.117Z,9.9
2022-12-24T15:21:01.366Z,9.9
2022-12-24T15:22:17.606Z,9.9
2022-12-24T15:23:32.858Z,9.8
2022-12-24T15:24:49.107Z,9.8
2022-12-24T15:26:05.349Z,9.9
2022-12-24T15:27:21.576Z,9.8
2022-12-24T15:28:37.821Z,9.8
2022-12-24T15:29:54.052Z,9.8
2022-12-24T15:31:10.298Z,9.8
2022-12-24T15:32:25.560Z,9.7
2022-12-24T15:33:40.821Z,9.7
2022-12-24T15:34:56.089Z,9.7
2022-12-24T15:36:11.330Z,9.7
2022-12-24T15:37:26.597Z,9.7
2022-12-24T15:38:41.857Z,9.6
2022-12-24T15:41:13.409Z,9.6
2022-12-24T15:42:28.720Z,9.6
2022-12-24T15:43:44.028Z,9.6
2022-12-24T15:45:00.333Z,9.6
2022-12-24T15:46:16.619Z,9.6
2022-12-24T15:47:32.911Z,9.6
2022-12-24T15:48:49.207Z,9.6
2022-12-24T15:50:05.500Z,9.6
2022-12-24T15:51:21.804Z,9.6
2022-12-24T15:52:38.088Z,9.6
2022-12-24T15:53:54.399Z,9.6
2022-12-24T15:55:10.684Z,9.6
2022-12-24T15:56:26.966Z,9.6
2022-12-24T15:57:43.264Z,9.6
2022-12-24T15:58:59.562Z,9.6
2022-12-24T16:00:14.869Z,9.6
2022-12-24T16:01:31.170Z,9.6
2022-12-24T16:02:47.465Z,9.5
2022-12-24T16:04:03.754Z,9.5
2022-12-24T16:05:20.056Z,9.5
2022-12-24T16:06:36.344Z,9.5
2022-12-24T16:07:52.642Z,9.5
2022-12-24T16:09:07.951Z,9.4
2022-12-24T16:10:23.258Z,9.4
2022-12-24T16:11:38.585Z,9.4
2022-12-24T16:12:53.895Z,9.3
2022-12-24T16:14:10.174Z,9.3
2022-12-24T16:15:26.470Z,9.3
2022-12-24T16:16:42.766Z,9.3
2022-12-24T16:17:59.075Z,9.3
2022-12-24T16:19:15.357Z,9.2
2022-12-24T16:20:31.650Z,9.2
2022-12-24T16:21:47.952Z,9.2
2022-12-24T16:23:04.250Z,9.1
2022-12-24T16:24:20.530Z,9.1
2022-12-24T16:25:36.834Z,9.1
2022-12-24T16:26:53.117Z,9
2022-12-24T16:28:09.414Z,9
2022-12-24T16:29:24.732Z,9
2022-12-24T16:30:41.022Z,9
2022-12-24T16:31:57.320Z,8.9
2022-12-24T16:33:13.613Z,8.9
2022-12-24T16:34:29.909Z,8.9
2022-12-24T16:35:46.201Z,8.8
2022-12-24T16:37:02.492Z,8.8
2022-12-24T16:38:17.811Z,8.8
2022-12-24T16:39:33.121Z,8.8
2022-12-24T16:40:48.443Z,8.7
2022-12-24T16:42:03.745Z,8.7
2022-12-24T16:43:20.036Z,8.7
2022-12-24T16:44:36.331Z,8.7
2022-12-24T16:45:52.628Z,8.6
2022-12-24T16:47:08.914Z,8.6
2022-12-24T16:48:25.206Z,8.6
2022-12-24T16:49:41.509Z,8.6
2022-12-24T16:50:57.810Z,8.6
2022-12-24T16:52:14.092Z,8.6
2022-12-24T16:53:30.389Z,8.6
2022-12-24T16:54:46.686Z,8.6
2022-12-24T16:56:02.973Z,8.5
2022-12-24T16:57:19.268Z,8.5
2022-12-24T16:58:34.585Z,8.5
2022-12-24T16:59:50.883Z,8.5
2022-12-24T17:01:07.184Z,8.5
2022-12-24T17:02:23.461Z,8.5
2022-12-24T17:03:39.767Z,8.4
2022-12-24T17:04:56.047Z,8.4
2022-12-24T17:06:12.349Z,8.4
2022-12-24T17:07:27.667Z,8.4
2022-12-24T17:08:42.970Z,8.4
2022-12-24T17:09:59.272Z,8.4
2022-12-24T17:11:15.571Z,8.3
2022-12-24T17:12:31.854Z,8.3
2022-12-24T17:13:48.144Z,8.3
2022-12-24T17:15:04.445Z,8.3
2022-12-24T17:16:20.746Z,8.2
2022-12-24T17:17:37.037Z,8.2
2022-12-24T17:18:53.331Z,8.2
2022-12-24T17:20:09.626Z,8.2
2022-12-24T17:21:25.915Z,8.2